Time;durP1;ratioP1;P1;durP2;ratioP2;P2;SDS_P1;SDS_P2;PMS_P1;PMS_P2;Temp;Humidity;BMP_temperature;BMP_pressure;BME280_temperature;BME280_humidity;BME280_pressure;Samples;Min_cycle;Max_cycle;Signal;HPM_P1;HPM_P2
2023/05/27 00:01:46;;;;;;;13.00;2.92;;;15.00;65.00;;;;;;5098711;28;20151;-87
2023/05/27 00:04:12;;;;;;;8.23;2.60;;;14.90;64.90;;;;;;5132718;27;20023;-86
2023/05/27 00:06:38;;;;;;;8.70;2.40;;;14.90;65.10;;;;;;5098783;28;20024;-88
2023/05/27 00:09:04;;;;;;;7.57;2.28;;;14.90;65.20;;;;;;5098424;28;20027;-87
2023/05/27 00:11:29;;;;;;;10.63;2.85;;;14.90;65.40;;;;;;5098593;28;20821;-86
2023/05/27 00:13:55;;;;;;;6.43;2.35;;;14.80;65.50;;;;;;5098314;28;20504;-87
2023/05/27 00:16:21;;;;;;;8.52;2.80;;;14.80;65.50;;;;;;5098231;28;20032;-87
2023/05/27 00:18:48;;;;;;;7.55;2.38;;;14.80;65.60;;;;;;5132298;27;20709;-87
2023/05/27 00:21:14;;;;;;;4.80;2.33;;;14.70;65.70;;;;;;5115541;28;20387;-86
2023/05/27 00:23:44;;;;;;;8.70;2.58;;;14.70;65.80;;;;;;5116342;28;20026;-86
2023/05/27 00:26:10;;;;;;;8.77;2.42;;;14.70;65.90;;;;;;5115133;28;20050;-87
2023/05/27 00:28:35;;;;;;;7.50;2.50;;;14.60;66.00;;;;;;5098097;28;20437;-87
2023/05/27 00:31:01;;;;;;;8.50;2.50;;;14.60;66.30;;;;;;5098236;28;20080;-86
2023/05/27 00:33:28;;;;;;;8.18;2.65;;;14.50;66.50;;;;;;5098167;28;20031;-86
2023/05/27 00:35:53;;;;;;;10.07;2.70;;;14.50;67.50;;;;;;5097890;28;20027;-87
2023/05/27 00:38:19;;;;;;;6.57;2.65;;;14.50;66.80;;;;;;5097883;28;20038;-87
2023/05/27 00:40:46;;;;;;;6.93;2.25;;;14.40;66.90;;;;;;5114856;28;20488;-88
2023/05/27 00:43:12;;;;;;;10.73;2.58;;;14.40;67.00;;;;;;5114714;28;20425;-87
2023/05/27 00:45:37;;;;;;;6.43;2.42;;;14.40;67.30;;;;;;5114673;28;20099;-87
2023/05/27 00:48:04;;;;;;;12.60;2.75;;;14.30;67.50;;;;;;5097652;28;20046;-87
2023/05/27 00:50:30;;;;;;;9.20;3.03;;;14.20;67.80;;;;;;5097861;28;20024;-86
2023/05/27 00:52:56;;;;;;;7.55;2.60;;;14.30;67.80;;;;;;5097736;28;20026;-87
2023/05/27 00:55:23;;;;;;;9.32;2.67;;;14.20;68.00;;;;;;5114556;28;20020;-86
2023/05/27 00:57:48;;;;;;;7.18;2.42;;;14.20;68.00;;;;;;5097457;28;20043;-87
2023/05/27 01:00:15;;;;;;;10.55;3.10;;;14.20;68.30;;;;;;5114505;28;20381;-87
2023/05/27 01:02:42;;;;;;;11.35;2.35;;;14.10;68.30;;;;;;5113487;28;20033;-87
2023/05/27 01:05:10;;;;;;;8.10;2.45;;;14.10;68.50;;;;;;5115528;28;20016;-87
2023/05/27 01:08:01;;;;;;;8.13;2.55;;;14.10;68.50;;;;;;5114269;28;20024;-87
2023/05/27 01:10:50;;;;;;;10.20;2.70;;;14.10;68.60;;;;;;5131429;27;20024;-86
2023/05/27 01:13:40;;;;;;;10.73;2.97;;;14.00;68.80;;;;;;5114238;28;20020;-87
2023/05/27 01:16:13;;;;;;;6.43;2.80;;;14.00;69.20;;;;;;5114082;28;20043;-87
2023/05/27 01:18:43;;;;;;;10.02;3.00;;;13.90;69.20;;;;;;5113995;28;20020;-87
2023/05/27 01:21:12;;;;;;;9.35;2.92;;;13.80;69.30;;;;;;5115336;28;20015;-87
2023/05/27 01:23:38;;;;;;;7.03;2.97;;;13.80;69.50;;;;;;5115354;28;20365;-86
2023/05/27 01:26:05;;;;;;;10.25;2.80;;;13.70;69.70;;;;;;5114233;28;20103;-86
2023/05/27 01:28:31;;;;;;;9.27;2.47;;;13.60;69.90;;;;;;5113774;28;20114;-86
2023/05/27 01:31:05;;;;;;;8.35;2.42;;;13.60;70.20;;;;;;5115169;28;20060;-87
2023/05/27 01:33:37;;;;;;;8.85;2.67;;;13.70;70.20;;;;;;5113914;28;20202;-86
2023/05/27 01:36:09;;;;;;;10.40;2.22;;;13.70;70.30;;;;;;5115089;28;20031;-86
2023/05/27 01:38:38;;;;;;;11.70;2.90;;;13.60;70.10;;;;;;5113517;28;20069;-86
2023/05/27 01:41:04;;;;;;;11.18;3.15;;;13.60;70.40;;;;;;5113787;28;20114;-87
2023/05/27 01:43:30;;;;;;;10.25;2.67;;;13.60;70.70;;;;;;5113623;28;20046;-86
2023/05/27 01:45:56;;;;;;;7.47;2.22;;;13.50;70.80;;;;;;5096200;28;20412;-87
2023/05/27 01:48:22;;;;;;;11.20;2.67;;;13.50;71.00;;;;;;5113504;28;20063;-87
2023/05/27 01:50:47;;;;;;;8.70;2.85;;;13.50;71.20;;;;;;5113519;28;20034;-86
2023/05/27 01:53:13;;;;;;;6.00;2.28;;;13.50;71.10;;;;;;5113407;28;20035;-86
2023/05/27 01:55:39;;;;;;;4.53;2.10;;;13.50;71.00;;;;;;5096435;28;20032;-87
2023/05/27 01:58:05;;;;;;;10.13;3.13;;;13.50;71.80;;;;;;5079444;28;20393;-87
2023/05/27 02:00:30;;;;;;;9.85;2.80;;;13.40;70.90;;;;;;5096737;28;20157;-87
2023/05/27 02:02:56;;;;;;;8.75;3.28;;;13.40;71.20;;;;;;5096179;28;20078;-87
2023/05/27 02:05:22;;;;;;;10.13;2.78;;;13.40;71.20;;;;;;5096481;28;20024;-86
2023/05/27 02:07:47;;;;;;;10.90;3.25;;;13.40;71.40;;;;;;5114339;28;20039;-85
2023/05/27 02:10:13;;;;;;;8.98;2.80;;;13.40;71.30;;;;;;5096127;28;20493;-86
2023/05/27 02:12:38;;;;;;;7.85;2.60;;;13.40;71.30;;;;;;5112884;28;20024;-86
2023/05/27 02:15:04;;;;;;;8.00;2.67;;;13.40;71.30;;;;;;5079025;28;20031;-86
2023/05/27 02:17:30;;;;;;;8.98;3.00;;;13.40;71.60;;;;;;5079046;28;20118;-87
2023/05/27 02:19:56;;;;;;;5.68;2.47;;;13.30;71.60;;;;;;5095887;28;20201;-86
2023/05/27 02:22:22;;;;;;;9.77;2.25;;;13.30;71.70;;;;;;5095881;28;20027;-86
2023/05/27 02:24:48;;;;;;;11.23;2.83;;;13.30;71.90;;;;;;5095995;28;20023;-86
2023/05/27 02:27:13;;;;;;;7.35;2.83;;;13.30;72.20;;;;;;5095618;28;20038;-86
2023/05/27 02:29:39;;;;;;;10.18;2.80;;;13.20;72.20;;;;;;5095893;28;20107;-86
2023/05/27 02:32:05;;;;;;;8.38;2.47;;;13.20;72.20;;;;;;5078971;28;20485;-85
2023/05/27 02:34:31;;;;;;;8.75;2.63;;;13.10;72.30;;;;;;5112631;28;20038;-86
2023/05/27 02:36:57;;;;;;;9.57;2.40;;;13.10;72.50;;;;;;5095657;28;20019;-86
2023/05/27 02:39:23;;;;;;;6.20;2.85;;;13.10;72.70;;;;;;5095388;28;20655;-87
2023/05/27 02:41:48;;;;;;;7.75;2.90;;;13.10;72.70;;;;;;5078805;28;20020;-87
2023/05/27 02:44:14;;;;;;;9.32;2.88;;;13.10;72.70;;;;;;5078659;28;20039;-85
2023/05/27 02:46:40;;;;;;;10.65;3.03;;;13.10;72.70;;;;;;5078563;28;20392;-86
2023/05/27 02:49:05;;;;;;;8.65;3.80;;;13.10;72.70;;;;;;5112513;28;20379;-87
2023/05/27 02:51:31;;;;;;;11.60;2.92;;;13.00;72.70;;;;;;5078710;28;20039;-87
2023/05/27 02:53:56;;;;;;;8.85;2.63;;;13.00;72.80;;;;;;5095361;28;20035;-86
2023/05/27 02:56:22;;;;;;;5.70;2.53;;;13.00;73.00;;;;;;5095483;28;20100;-87
2023/05/27 02:58:48;;;;;;;10.57;3.40;;;13.00;74.00;;;;;;5113373;28;20370;-86
2023/05/27 03:01:13;;;;;;;10.35;3.05;;;12.90;73.20;;;;;;5095379;28;20027;-85
2023/05/27 03:03:39;;;;;;;8.05;2.67;;;12.90;73.20;;;;;;5129358;27;20034;-85
2023/05/27 03:06:05;;;;;;;7.43;2.70;;;12.90;73.40;;;;;;5095015;28;20049;-86
2023/05/27 03:08:31;;;;;;;7.85;2.60;;;12.90;73.40;;;;;;5095127;28;20070;-86
2023/05/27 03:10:56;;;;;;;10.25;2.85;;;12.90;73.50;;;;;;5078700;28;20031;-87
2023/05/27 03:13:22;;;;;;;8.88;2.90;;;12.80;73.70;;;;;;5095229;28;20108;-87
2023/05/27 03:15:48;;;;;;;10.88;2.75;;;12.80;73.80;;;;;;5113009;28;20028;-86
2023/05/27 03:18:14;;;;;;;8.93;3.33;;;12.80;74.00;;;;;;5095017;28;20488;-86
2023/05/27 03:20:39;;;;;;;7.78;2.55;;;12.70;73.90;;;;;;5112055;28;20038;-87
2023/05/27 03:23:05;;;;;;;12.30;3.15;;;12.70;74.00;;;;;;5078431;28;20404;-86
2023/05/27 03:25:33;;;;;;;12.55;3.53;;;12.70;74.00;;;;;;5096868;28;20046;-87
2023/05/27 03:27:58;;;;;;;10.98;3.47;;;12.70;74.20;;;;;;5119897;27;20031;-87
2023/05/27 03:30:24;;;;;;;11.07;3.00;;;12.70;75.10;;;;;;5084745;28;20050;-86
2023/05/27 03:32:50;;;;;;;13.38;3.28;;;12.70;74.40;;;;;;5101693;28;20368;-87
2023/05/27 03:35:16;;;;;;;10.98;3.35;;;12.60;74.50;;;;;;5118686;27;20023;-85
2023/05/27 03:37:42;;;;;;;11.63;3.10;;;12.60;74.50;;;;;;5118687;28;20028;-86
2023/05/27 03:40:08;;;;;;;9.63;3.00;;;12.60;74.60;;;;;;5084649;28;20077;-87
2023/05/27 03:42:35;;;;;;;12.05;3.67;;;12.50;74.60;;;;;;5101579;28;20076;-86
2023/05/27 03:45:00;;;;;;;10.63;3.10;;;12.50;74.70;;;;;;5101652;28;20027;-86
2023/05/27 03:47:26;;;;;;;8.13;2.88;;;12.50;74.90;;;;;;5135571;27;20051;-86
2023/05/27 03:49:52;;;;;;;12.90;3.40;;;12.50;75.10;;;;;;5135591;27;20028;-86
2023/05/27 03:52:17;;;;;;;8.35;3.00;;;12.50;75.00;;;;;;5101283;28;20031;-86
2023/05/27 03:54:44;;;;;;;7.20;3.08;;;12.50;75.00;;;;;;5101481;28;20481;-86
2023/05/27 03:57:09;;;;;;;9.45;2.88;;;12.40;75.20;;;;;;5101421;28;20059;-86
2023/05/27 03:59:36;;;;;;;11.65;3.00;;;12.50;75.40;;;;;;5101129;28;20470;-86
2023/05/27 04:02:02;;;;;;;7.90;2.60;;;12.50;75.50;;;;;;5101294;28;20024;-87
2023/05/27 04:04:27;;;;;;;12.43;3.28;;;12.40;75.30;;;;;;5084440;28;20476;-85
2023/05/27 04:06:53;;;;;;;11.18;3.20;;;12.50;75.50;;;;;;5118489;28;20024;-85
2023/05/27 04:09:19;;;;;;;9.18;3.10;;;12.40;75.60;;;;;;5114296;27;20388;-85
2023/05/27 04:11:44;;;;;;;6.78;2.67;;;12.40;75.80;;;;;;5139473;27;20392;-86
2023/05/27 04:14:10;;;;;;;7.90;2.80;;;12.40;75.90;;;;;;5104715;27;20034;-86
2023/05/27 04:16:37;;;;;;;11.07;3.90;;;12.40;76.10;;;;;;5139070;27;20055;-87
2023/05/27 04:19:03;;;;;;;10.40;3.22;;;12.40;76.10;;;;;;5137726;27;20031;-86
2023/05/27 04:21:29;;;;;;;11.75;3.17;;;12.30;76.30;;;;;;5138228;27;20072;-86
2023/05/27 04:23:55;;;;;;;11.75;3.30;;;12.30;76.50;;;;;;5120650;27;20019;-86
2023/05/27 04:26:20;;;;;;;7.68;3.17;;;12.30;76.60;;;;;;5138218;27;20189;-85
2023/05/27 04:28:46;;;;;;;11.30;3.15;;;12.40;76.70;;;;;;5104441;27;20019;-86
2023/05/27 04:31:15;;;;;;;8.75;2.90;;;12.40;76.70;;;;;;5138327;27;20103;-86
2023/05/27 04:33:45;;;;;;;7.35;2.92;;;12.30;76.50;;;;;;5139655;27;20023;-87
2023/05/27 04:36:11;;;;;;;10.95;3.08;;;12.30;76.70;;;;;;5138644;27;20035;-80
2023/05/27 04:38:37;;;;;;;10.02;3.03;;;12.30;76.80;;;;;;5116853;27;20034;-86
2023/05/27 04:41:03;;;;;;;9.95;3.78;;;12.30;77.00;;;;;;5135568;27;20130;-87
2023/05/27 04:43:29;;;;;;;9.30;2.90;;;12.20;77.20;;;;;;5135428;27;20023;-87
2023/05/27 04:46:06;;;;;;;9.48;3.25;;;12.20;77.20;;;;;;5118029;27;20354;-84
2023/05/27 04:48:31;;;;;;;9.75;2.90;;;12.30;77.30;;;;;;5135286;27;20087;-85
2023/05/27 04:50:57;;;;;;;7.95;3.53;;;12.30;77.40;;;;;;5100912;27;20122;-85
2023/05/27 04:53:24;;;;;;;8.93;3.45;;;12.40;77.30;;;;;;5100793;27;20113;-85
2023/05/27 04:55:51;;;;;;;12.07;3.28;;;12.40;77.50;;;;;;5135158;27;20034;-85
2023/05/27 04:58:16;;;;;;;10.77;3.70;;;12.40;77.40;;;;;;5134915;27;20417;-85
2023/05/27 05:00:53;;;;;;;11.60;2.80;;;12.40;77.50;;;;;;5134723;27;20326;-85
2023/05/27 05:03:26;;;;;;;8.73;3.22;;;12.40;78.30;;;;;;5119303;27;20376;-84
2023/05/27 05:05:52;;;;;;;7.65;3.00;;;12.30;77.70;;;;;;5136023;27;20015;-85
2023/05/27 05:08:21;;;;;;;7.65;2.78;;;12.30;77.90;;;;;;5135188;27;20113;-84
2023/05/27 05:10:47;;;;;;;8.70;3.13;;;12.30;77.90;;;;;;5135930;27;20484;-85
2023/05/27 05:13:14;;;;;;;10.45;3.22;;;12.30;77.90;;;;;;5117567;27;20058;-85
2023/05/27 05:15:40;;;;;;;8.52;3.30;;;12.30;78.80;;;;;;5100515;27;20027;-85
2023/05/27 05:18:06;;;;;;;9.80;3.70;;;12.30;78.10;;;;;;5134452;27;20023;-85
2023/05/27 05:20:31;;;;;;;8.27;3.05;;;12.30;78.30;;;;;;5117314;27;20503;-85
2023/05/27 05:22:58;;;;;;;10.90;3.10;;;12.30;78.40;;;;;;5117301;27;20054;-84
2023/05/27 05:25:24;;;;;;;14.35;3.70;;;12.40;78.30;;;;;;5133561;27;20024;-85
2023/05/27 05:27:51;;;;;;;14.48;3.70;;;12.30;78.50;;;;;;5117090;27;20029;-84
2023/05/27 05:30:17;;;;;;;9.68;3.17;;;12.40;78.60;;;;;;5100280;27;20033;-85
2023/05/27 05:32:42;;;;;;;12.15;3.80;;;12.40;78.60;;;;;;5117121;27;20023;-84
2023/05/27 05:35:08;;;;;;;11.60;3.83;;;12.50;78.70;;;;;;5134237;27;20030;-85
2023/05/27 05:37:34;;;;;;;12.68;3.78;;;12.50;78.80;;;;;;5135297;27;20031;-85
2023/05/27 05:39:59;;;;;;;9.73;3.13;;;12.50;78.80;;;;;;5134022;27;20031;-85
2023/05/27 05:42:25;;;;;;;13.43;3.72;;;12.50;78.80;;;;;;5099919;27;20605;-85
2023/05/27 05:44:53;;;;;;;10.50;3.17;;;12.50;78.80;;;;;;5116933;27;20031;-85
2023/05/27 05:47:19;;;;;;;11.05;3.28;;;12.50;79.20;;;;;;5116660;27;20499;-85
2023/05/27 05:49:45;;;;;;;10.73;3.47;;;12.50;79.30;;;;;;5099345;27;20092;-85
2023/05/27 05:52:10;;;;;;;10.70;3.67;;;12.50;79.60;;;;;;5116814;27;20027;-84
2023/05/27 05:54:36;;;;;;;10.40;3.45;;;12.50;79.50;;;;;;5133787;27;20027;-85
2023/05/27 05:57:02;;;;;;;9.75;3.45;;;12.60;79.60;;;;;;5099652;27;20045;-84
2023/05/27 05:59:28;;;;;;;14.90;5.18;;;12.70;79.50;;;;;;5133664;27;20027;-84
2023/05/27 06:01:54;;;;;;;11.07;3.85;;;12.70;79.70;;;;;;5133636;27;20058;-85
2023/05/27 06:04:20;;;;;;;6.68;3.10;;;12.80;79.40;;;;;;5116434;27;20051;-84
2023/05/27 06:06:46;;;;;;;11.77;3.25;;;12.80;79.90;;;;;;5099483;27;20027;-85
2023/05/27 06:09:11;;;;;;;10.63;3.45;;;12.80;79.80;;;;;;5133407;27;20027;-84
2023/05/27 06:11:37;;;;;;;11.75;4.18;;;12.80;79.70;;;;;;5116396;27;20069;-86
2023/05/27 06:14:03;;;;;;;8.23;3.10;;;12.90;80.00;;;;;;5099254;27;20031;-87
2023/05/27 06:16:29;;;;;;;17.00;3.40;;;12.90;80.20;;;;;;5134717;27;20106;-84
2023/05/27 06:18:54;;;;;;;14.20;3.50;;;12.90;80.30;;;;;;5133246;27;20034;-86
2023/05/27 06:21:20;;;;;;;11.40;4.00;;;12.90;80.10;;;;;;5116110;27;20030;-85
2023/05/27 06:23:47;;;;;;;13.55;3.80;;;13.00;79.90;;;;;;5116175;27;20028;-86
2023/05/27 06:26:14;;;;;;;9.00;3.63;;;13.10;79.80;;;;;;5115919;27;20114;-85
2023/05/27 06:28:40;;;;;;;10.75;3.40;;;13.10;79.70;;;;;;5099502;27;20498;-85
2023/05/27 06:31:05;;;;;;;9.60;3.75;;;13.20;80.30;;;;;;5115973;27;20069;-86
2023/05/27 06:33:31;;;;;;;12.80;4.32;;;13.30;79.70;;;;;;5111543;27;20031;-84
2023/05/27 06:35:56;;;;;;;15.20;4.65;;;13.30;79.70;;;;;;5115464;27;20047;-86
2023/05/27 06:38:23;;;;;;;12.02;3.47;;;13.30;80.00;;;;;;5098938;27;20116;-86
2023/05/27 06:40:49;;;;;;;12.40;3.75;;;13.30;79.80;;;;;;5129261;27;20445;-85
2023/05/27 06:43:15;;;;;;;11.00;3.47;;;13.30;79.90;;;;;;5131231;27;20027;-85
2023/05/27 06:45:40;;;;;;;9.13;3.28;;;13.40;79.80;;;;;;5114035;27;20027;-86
2023/05/27 06:48:07;;;;;;;9.13;3.47;;;13.40;80.20;;;;;;5097073;27;20496;-85
2023/05/27 06:50:33;;;;;;;9.50;3.20;;;13.50;79.80;;;;;;5115079;27;20052;-86
2023/05/27 06:52:59;;;;;;;9.02;3.58;;;13.50;79.80;;;;;;5115158;27;20502;-84
2023/05/27 06:55:25;;;;;;;13.65;4.25;;;13.60;79.50;;;;;;5114401;27;20019;-85
2023/05/27 06:57:50;;;;;;;13.38;3.90;;;13.70;80.20;;;;;;5114960;27;20046;-85
2023/05/27 07:00:16;;;;;;;12.55;3.95;;;13.70;79.90;;;;;;5131918;27;20019;-85
2023/05/27 07:02:42;;;;;;;10.82;3.70;;;13.70;80.00;;;;;;5115380;27;20058;-86
2023/05/27 07:05:08;;;;;;;9.40;3.78;;;13.80;79.60;;;;;;5115519;27;20030;-85
2023/05/27 07:07:33;;;;;;;13.27;3.83;;;13.90;79.80;;;;;;5115467;27;20023;-86
2023/05/27 07:09:59;;;;;;;14.05;3.90;;;13.90;79.70;;;;;;5098274;27;20108;-86
2023/05/27 07:12:25;;;;;;;12.45;3.83;;;14.00;79.30;;;;;;5115623;27;20066;-86
2023/05/27 07:14:51;;;;;;;11.73;4.32;;;14.00;79.40;;;;;;5115239;27;20444;-86
2023/05/27 07:17:16;;;;;;;13.85;4.00;;;14.10;79.30;;;;;;5115301;27;20031;-86
2023/05/27 07:19:42;;;;;;;10.30;3.90;;;14.20;78.90;;;;;;5115359;27;20102;-87
2023/05/27 07:22:07;;;;;;;8.88;3.97;;;14.20;79.20;;;;;;5132402;27;20387;-85
2023/05/27 07:24:33;;;;;;;12.57;4.10;;;14.30;79.10;;;;;;5098293;28;20016;-85
2023/05/27 07:26:59;;;;;;;12.98;6.13;;;14.30;78.40;;;;;;5114873;28;20051;-85
2023/05/27 07:29:26;;;;;;;8.43;4.03;;;14.40;78.20;;;;;;5132265;28;20030;-86
2023/05/27 07:31:52;;;;;;;8.60;4.07;;;14.50;77.90;;;;;;5115304;28;20438;-86
2023/05/27 07:34:18;;;;;;;11.20;3.83;;;14.50;77.50;;;;;;5114651;28;20027;-84
2023/05/27 07:36:43;;;;;;;10.10;4.13;;;14.50;77.90;;;;;;5114929;28;20092;-85
2023/05/27 07:39:09;;;;;;;11.60;3.53;;;14.50;78.20;;;;;;5113552;28;20027;-86
2023/05/27 07:41:38;;;;;;;10.82;3.88;;;14.60;78.50;;;;;;5115091;28;20028;-86
2023/05/27 07:44:04;;;;;;;11.02;4.13;;;14.70;78.10;;;;;;5114952;28;20031;-87
2023/05/27 07:46:30;;;;;;;12.68;4.35;;;14.70;77.30;;;;;;5114823;28;20104;-86
2023/05/27 07:48:55;;;;;;;12.00;4.70;;;14.70;77.20;;;;;;5098230;28;20369;-85
2023/05/27 07:51:21;;;;;;;11.75;4.45;;;14.80;77.10;;;;;;5132176;28;20111;-87
2023/05/27 07:53:48;;;;;;;11.15;4.30;;;14.90;76.90;;;;;;5132248;28;20055;-87
2023/05/27 07:56:14;;;;;;;12.95;4.40;;;14.90;77.30;;;;;;5132135;28;20031;-86
2023/05/27 07:58:39;;;;;;;10.95;4.05;;;15.00;77.70;;;;;;5114865;28;20110;-86
2023/05/27 08:01:05;;;;;;;14.45;4.75;;;15.10;77.00;;;;;;5132017;28;20093;-86
2023/05/27 08:03:31;;;;;;;15.45;5.07;;;15.20;76.70;;;;;;5115297;28;20484;-86
2023/05/27 08:05:56;;;;;;;12.05;4.30;;;15.20;76.50;;;;;;5115059;28;20024;-86
2023/05/27 08:08:22;;;;;;;15.18;4.50;;;15.20;76.40;;;;;;5132048;28;20031;-86
2023/05/27 08:10:48;;;;;;;13.77;5.03;;;15.30;76.70;;;;;;5097862;28;20032;-87
2023/05/27 08:13:13;;;;;;;12.35;4.93;;;15.40;76.90;;;;;;5101189;27;20113;-87
2023/05/27 08:15:39;;;;;;;13.95;5.07;;;15.50;76.60;;;;;;5135884;27;20126;-85
2023/05/27 08:18:05;;;;;;;12.80;4.47;;;15.60;76.20;;;;;;5118669;27;20027;-86
2023/05/27 08:20:30;;;;;;;10.63;4.88;;;15.70;75.50;;;;;;5118888;27;20549;-87
2023/05/27 08:22:56;;;;;;;13.65;5.45;;;15.60;75.20;;;;;;5118962;27;20031;-87
2023/05/27 08:25:22;;;;;;;11.25;4.72;;;15.70;77.00;;;;;;5101675;27;20027;-86
2023/05/27 08:28:01;;;;;;;12.40;4.30;;;15.70;76.80;;;;;;5118306;27;20040;-86
2023/05/27 08:30:28;;;;;;;17.55;4.78;;;15.90;77.50;;;;;;5135607;27;20118;-86
2023/05/27 08:32:57;;;;;;;14.55;4.45;;;16.10;78.50;;;;;;5136811;27;20039;-84
2023/05/27 08:35:24;;;;;;;11.45;4.70;;;16.20;76.70;;;;;;5135583;27;20046;-86
2023/05/27 08:37:49;;;;;;;11.57;4.50;;;16.30;76.30;;;;;;5118141;27;20042;-85
2023/05/27 08:40:17;;;;;;;13.85;5.32;;;16.40;75.90;;;;;;5136443;27;20488;-85
2023/05/27 08:42:44;;;;;;;13.68;4.72;;;16.50;76.80;;;;;;5135230;27;20539;-85
2023/05/27 08:45:10;;;;;;;9.90;4.30;;;16.50;77.40;;;;;;5118240;27;20030;-86
2023/05/27 08:47:38;;;;;;;11.18;4.25;;;16.70;76.40;;;;;;5134952;27;20043;-86
2023/05/27 08:50:04;;;;;;;12.50;4.88;;;16.80;76.00;;;;;;5136440;27;20585;-86
2023/05/27 08:52:30;;;;;;;14.73;4.32;;;16.90;75.10;;;;;;5135011;27;20023;-88
2023/05/27 08:55:03;;;;;;;14.10;4.55;;;17.00;74.00;;;;;;5135046;27;20498;-85
2023/05/27 08:57:30;;;;;;;14.25;4.47;;;17.00;74.60;;;;;;5117794;27;20028;-85
2023/05/27 08:59:56;;;;;;;12.70;4.72;;;17.10;72.20;;;;;;5134713;27;20538;-85
2023/05/27 09:02:22;;;;;;;15.68;4.40;;;17.00;71.10;;;;;;5117858;27;20493;-87
2023/05/27 09:04:49;;;;;;;11.63;4.53;;;16.90;71.40;;;;;;5118309;27;20023;-87
2023/05/27 09:07:15;;;;;;;13.90;4.60;;;16.90;73.40;;;;;;5134991;27;20424;-88
2023/05/27 09:09:42;;;;;;;12.48;4.88;;;17.10;72.90;;;;;;5118020;27;20529;-87
2023/05/27 09:12:10;;;;;;;13.07;4.43;;;17.20;73.20;;;;;;5135164;27;20379;-86
2023/05/27 09:14:41;;;;;;;13.55;4.95;;;17.30;71.30;;;;;;5117996;27;20104;-84
2023/05/27 09:17:08;;;;;;;13.13;4.40;;;17.30;71.30;;;;;;5118501;27;20076;-85
2023/05/27 09:19:34;;;;;;;19.23;5.07;;;17.30;70.10;;;;;;5117706;27;20055;-86
2023/05/27 09:22:01;;;;;;;11.40;4.78;;;17.40;70.80;;;;;;5135877;27;20016;-87
2023/05/27 09:24:27;;;;;;;16.50;4.90;;;17.50;71.60;;;;;;5135064;27;20023;-87
2023/05/27 09:26:54;;;;;;;10.95;3.90;;;17.60;71.60;;;;;;5134390;27;20369;-86
2023/05/27 09:29:23;;;;;;;11.07;4.40;;;17.70;70.30;;;;;;5117531;27;20518;-87
2023/05/27 09:31:48;;;;;;;15.27;4.53;;;17.70;69.60;;;;;;5134343;27;20023;-88
2023/05/27 09:34:16;;;;;;;12.38;4.32;;;17.90;70.40;;;;;;5134240;27;20160;-87
2023/05/27 09:36:46;;;;;;;13.48;3.78;;;18.00;70.50;;;;;;5134300;27;20449;-86
2023/05/27 09:39:14;;;;;;;12.65;4.57;;;18.10;70.60;;;;;;5134027;27;20072;-86
2023/05/27 09:41:40;;;;;;;10.50;3.95;;;18.10;68.90;;;;;;5134108;27;20081;-86
2023/05/27 09:44:07;;;;;;;10.02;3.97;;;18.20;69.60;;;;;;5116945;27;20076;-86
2023/05/27 09:46:33;;;;;;;14.50;3.83;;;18.30;69.60;;;;;;5135197;27;20100;-87
2023/05/27 09:49:00;;;;;;;12.05;4.05;;;18.40;69.60;;;;;;5134016;27;20388;-87
2023/05/27 09:51:27;;;;;;;10.15;4.10;;;18.60;69.90;;;;;;5116873;27;20031;-87
2023/05/27 09:53:57;;;;;;;12.57;3.65;;;18.60;67.20;;;;;;5100106;27;20031;-87
2023/05/27 09:56:28;;;;;;;10.65;4.00;;;18.70;67.10;;;;;;5133809;27;20556;-86
2023/05/27 09:58:58;;;;;;;12.55;3.67;;;18.80;67.50;;;;;;5133646;27;20088;-86
2023/05/27 10:01:29;;;;;;;14.48;4.45;;;18.90;67.20;;;;;;5099758;27;20031;-87
2023/05/27 10:03:58;;;;;;;16.50;4.50;;;19.10;65.50;;;;;;5133487;27;20053;-86
2023/05/27 10:06:25;;;;;;;14.00;4.30;;;19.10;66.30;;;;;;5117106;27;20023;-87
2023/05/27 10:08:58;;;;;;;9.55;3.55;;;19.20;66.20;;;;;;5116601;27;20075;-86
2023/05/27 10:11:26;;;;;;;;;;;19.30;64.20;;;;;;5134217;27;20031;-88
2023/05/27 10:13:52;;;;;;;11.48;3.20;;;19.30;64.70;;;;;;5133831;27;19918;-88
2023/05/27 10:16:22;;;;;;;9.70;3.85;;;19.30;65.80;;;;;;5116617;27;20031;-86
2023/05/27 10:18:58;;;;;;;10.77;3.50;;;19.50;64.50;;;;;;5133834;27;20033;-88
2023/05/27 10:21:27;;;;;;;11.18;3.65;;;19.40;59.90;;;;;;5116866;27;20027;-76
2023/05/27 10:23:57;;;;;;;9.65;3.50;;;19.40;62.90;;;;;;5133201;27;20559;-78
2023/05/27 10:26:36;;;;;;;9.13;3.42;;;19.50;64.00;;;;;;5133359;27;20019;-78
2023/05/27 10:29:12;;;;;;;12.75;3.33;;;19.60;63.90;;;;;;5116714;27;20068;-75
2023/05/27 10:31:49;;;;;;;11.52;3.60;;;19.70;64.00;;;;;;5115791;27;20026;-75
2023/05/27 10:34:16;;;;;;;9.57;3.22;;;19.80;64.10;;;;;;5134745;27;20054;-87
2023/05/27 10:36:41;;;;;;;9.60;3.10;;;19.90;61.80;;;;;;5132206;27;20054;-87
2023/05/27 10:39:16;;;;;;;10.65;3.38;;;19.90;62.80;;;;;;5133040;27;20058;-87
2023/05/27 10:41:56;;;;;;;15.90;3.83;;;19.90;61.40;;;;;;5133004;27;20011;-87
2023/05/27 10:44:36;;;;;;;9.07;3.30;;;20.00;63.00;;;;;;5132822;27;20020;-87
2023/05/27 10:47:15;;;;;;;9.75;3.55;;;20.00;62.50;;;;;;5131527;27;20047;-87
2023/05/27 10:49:45;;;;;;;11.70;3.20;;;20.10;62.10;;;;;;5130940;27;20035;-87
2023/05/27 10:52:13;;;;;;;11.90;3.45;;;20.20;58.80;;;;;;5132061;27;20023;-86
2023/05/27 10:54:44;;;;;;;13.40;3.25;;;20.10;55.90;;;;;;5133897;27;20029;-87
2023/05/27 10:57:10;;;;;;;10.98;3.53;;;20.00;58.40;;;;;;5115423;27;20027;-87
2023/05/27 10:59:49;;;;;;;7.03;2.97;;;20.10;56.30;;;;;;5115375;27;20484;-87
2023/05/27 11:02:15;;;;;;;10.02;3.38;;;20.00;58.40;;;;;;5112102;28;20417;-87
2023/05/27 11:04:42;;;;;;;9.10;3.10;;;20.10;59.10;;;;;;5112001;28;20027;-87
2023/05/27 11:07:07;;;;;;;9.55;3.00;;;20.20;60.20;;;;;;5094990;28;20019;-87
2023/05/27 11:09:47;;;;;;;9.18;3.17;;;20.40;59.40;;;;;;5094901;28;20035;-86
2023/05/27 11:12:17;;;;;;;7.72;2.80;;;20.60;60.10;;;;;;5094867;28;20469;-87
2023/05/27 11:14:51;;;;;;;9.35;2.88;;;20.60;58.30;;;;;;5094971;28;20023;-88
2023/05/27 11:17:18;;;;;;;10.90;3.35;;;20.70;59.60;;;;;;5111765;28;20102;-87
2023/05/27 11:19:45;;;;;;;9.38;2.80;;;20.90;59.60;;;;;;5111702;28;20024;-87
2023/05/27 11:22:12;;;;;;;9.02;3.40;;;20.90;59.20;;;;;;5095033;28;20111;-88
2023/05/27 11:24:38;;;;;;;9.95;3.40;;;21.00;54.30;;;;;;5094929;28;20023;-87
2023/05/27 11:27:12;;;;;;;7.85;2.72;;;21.00;53.30;;;;;;5111812;28;20061;-87
2023/05/27 11:29:39;;;;;;;10.23;3.38;;;21.00;53.90;;;;;;5095030;28;20028;-88
2023/05/27 11:32:06;;;;;;;11.63;3.03;;;20.80;51.40;;;;;;5094985;28;20024;-88
2023/05/27 11:34:35;;;;;;;8.02;3.47;;;20.80;52.10;;;;;;5094836;28;20020;-88
2023/05/27 11:37:05;;;;;;;8.85;3.03;;;20.80;53.90;;;;;;5111834;28;20027;-86
2023/05/27 11:39:31;;;;;;;10.55;2.97;;;21.00;56.30;;;;;;5112768;28;20476;-87
2023/05/27 11:41:57;;;;;;;7.10;2.80;;;21.10;54.10;;;;;;5111877;28;20027;-87
2023/05/27 11:44:24;;;;;;;6.32;2.50;;;21.20;51.80;;;;;;5094682;28;20385;-88
2023/05/27 11:46:57;;;;;;;9.75;2.80;;;21.20;51.30;;;;;;5095511;28;20093;-87
2023/05/27 11:49:23;;;;;;;12.98;3.17;;;21.30;53.30;;;;;;5115745;28;20036;-87
2023/05/27 11:51:55;;;;;;;9.23;3.17;;;21.40;54.10;;;;;;5098670;28;20036;-86
2023/05/27 11:54:28;;;;;;;10.93;3.45;;;21.60;54.90;;;;;;5098568;28;20024;-81
2023/05/27 11:56:56;;;;;;;8.85;3.25;;;21.50;50.70;;;;;;5136489;27;20088;-85
2023/05/27 11:59:23;;;;;;;9.00;3.25;;;21.50;53.60;;;;;;5118900;27;20023;-86
2023/05/27 12:01:50;;;;;;;13.50;3.40;;;21.60;53.20;;;;;;5118842;27;20024;-85
2023/05/27 12:04:15;;;;;;;8.73;3.22;;;21.70;51.60;;;;;;5135927;27;20170;-83
2023/05/27 12:06:42;;;;;;;9.80;3.25;;;21.80;50.30;;;;;;5101827;27;20122;-84
2023/05/27 12:09:09;;;;;;;13.13;3.58;;;21.80;52.10;;;;;;5135769;27;20058;-84
2023/05/27 12:11:35;;;;;;;8.40;3.53;;;21.80;52.20;;;;;;5135800;27;20118;-84
2023/05/27 12:14:01;;;;;;;10.63;3.10;;;21.90;52.20;;;;;;5118491;27;20030;-83
2023/05/27 12:16:27;;;;;;;6.68;2.80;;;22.00;52.90;;;;;;5135694;27;20118;-84
2023/05/27 12:18:53;;;;;;;9.43;2.72;;;22.10;52.30;;;;;;5135492;27;20027;-79
2023/05/27 12:21:19;;;;;;;7.03;3.53;;;22.20;52.40;;;;;;5136836;27;20027;-84
2023/05/27 12:23:46;;;;;;;8.05;3.33;;;22.20;51.60;;;;;;5135417;27;20019;-84
2023/05/27 12:26:13;;;;;;;10.95;3.03;;;22.40;50.70;;;;;;5135443;27;20469;-84
2023/05/27 12:28:39;;;;;;;10.15;3.30;;;22.50;51.10;;;;;;5135455;27;20346;-84
2023/05/27 12:31:06;;;;;;;7.68;2.80;;;22.50;48.60;;;;;;5135411;27;20039;-84
2023/05/27 12:33:31;;;;;;;7.88;3.13;;;22.40;51.40;;;;;;5135297;27;20050;-84
2023/05/27 12:35:58;;;;;;;7.95;2.90;;;22.60;50.70;;;;;;5135226;27;20058;-84
2023/05/27 12:38:23;;;;;;;8.27;2.88;;;22.50;46.70;;;;;;5118244;27;20110;-83
2023/05/27 12:40:49;;;;;;;8.52;3.03;;;22.50;49.20;;;;;;5101052;27;20516;-84